Time;durP1;ratioP1;P1;durP2;ratioP2;P2;SDS_P1;SDS_P2;PMS_P1;PMS_P2;Temp;Humidity;BMP_temperature;BMP_pressure;BME280_temperature;BME280_humidity;BME280_pressure;Samples;Min_cycle;Max_cycle;Signal;HPM_P1;HPM_P2
2023/01/04 00:01:21;;;;;;;79.50;24.70;;;;;;;-0.51;100.00;100723.98;104615;1305;22811;-30
2023/01/04 00:03:46;;;;;;;57.20;21.50;;;;;;;-0.52;100.00;100722.27;104699;1305;24292;-33
2023/01/04 00:06:14;;;;;;;50.80;21.20;;;;;;;-0.53;100.00;100720.25;104407;1304;24887;-30
2023/01/04 00:08:40;;;;;;;42.80;17.50;;;;;;;-128.00;-1.00;-1.00;101135;1305;1004346;-30
2023/01/04 00:11:09;;;;;;;43.40;20.50;;;;;;;-128.00;-1.00;-1.00;101093;1302;1002691;-30
2023/01/04 00:13:34;;;;;;;30.20;15.50;;;;;;;-128.00;-1.00;-1.00;101145;1305;1004162;-34
2023/01/04 00:16:05;;;;;;;41.90;15.70;;;;;;;-128.00;-1.00;-1.00;101032;1305;1003421;-34
2023/01/04 00:18:32;;;;;;;44.20;19.90;;;;;;;-128.00;-1.00;-1.00;101068;1305;1004593;-34
2023/01/04 00:21:13;;;;;;;42.90;19.00;;;;;;;-128.00;-1.00;-1.00;101091;1305;1002659;-34
2023/01/04 00:23:40;;;;;;;36.50;16.30;;;;;;;-128.00;-1.00;-1.00;101105;1305;1002895;-35
2023/01/04 00:26:08;;;;;;;54.30;22.90;;;;;;;-128.00;-1.00;-1.00;101135;1305;1003227;-34
2023/01/04 00:28:34;;;;;;;38.20;17.70;;;;;;;-128.00;-1.00;-1.00;101051;1305;1003798;-33
2023/01/04 00:31:04;;;;;;;45.40;16.00;;;;;;;-128.00;-1.00;-1.00;101055;1298;1003731;-33
2023/01/04 00:33:30;;;;;;;28.10;14.10;;;;;;;-128.00;-1.00;-1.00;101069;1305;1004864;-33
2023/01/04 00:36:00;;;;;;;49.80;21.10;;;;;;;-128.00;-1.00;-1.00;101090;1305;1003922;-29
2023/01/04 00:38:26;;;;;;;54.60;21.50;;;;;;;-128.00;-1.00;-1.00;101122;1305;1004373;-29
2023/01/04 00:40:52;;;;;;;45.70;21.40;;;;;;;-128.00;-1.00;-1.00;101092;1305;1003634;-30
2023/01/04 00:43:17;;;;;;;48.20;19.90;;;;;;;-128.00;-1.00;-1.00;101120;1305;1004199;-29
2023/01/04 00:45:43;;;;;;;41.20;20.40;;;;;;;-128.00;-1.00;-1.00;101166;1305;1003795;-32
2023/01/04 00:48:09;;;;;;;60.70;26.80;;;;;;;-128.00;-1.00;-1.00;101069;1305;1003685;-33
2023/01/04 00:50:35;;;;;;;57.60;23.20;;;;;;;-128.00;-1.00;-1.00;101066;1305;1002935;-39
2023/01/04 00:53:01;;;;;;;49.90;21.40;;;;;;;-128.00;-1.00;-1.00;101116;1306;1003395;-28
2023/01/04 00:55:26;;;;;;;48.10;21.50;;;;;;;-128.00;-1.00;-1.00;101129;1306;1004730;-35
2023/01/04 00:57:52;;;;;;;64.60;23.80;;;;;;;-128.00;-1.00;-1.00;101032;1305;1003248;-30
2023/01/04 01:00:18;;;;;;;52.20;21.40;;;;;;;-128.00;-1.00;-1.00;101095;1305;1004058;-34
2023/01/04 01:02:43;;;;;;;47.80;17.70;;;;;;;-128.00;-1.00;-1.00;101079;1305;1003087;-30
2023/01/04 01:05:09;;;;;;;50.60;18.70;;;;;;;-128.00;-1.00;-1.00;101027;1305;1002966;-34
2023/01/04 01:07:35;;;;;;;44.60;17.90;;;;;;;-128.00;-1.00;-1.00;101112;1305;1003763;-30
2023/01/04 01:10:01;;;;;;;51.00;18.80;;;;;;;-128.00;-1.00;-1.00;101052;1305;1002430;-34
2023/01/04 01:12:27;;;;;;;36.40;19.40;;;;;;;-128.00;-1.00;-1.00;100942;1305;1003543;-33
2023/01/04 01:14:52;;;;;;;38.00;15.90;;;;;;;-128.00;-1.00;-1.00;101089;1305;1003480;-30
2023/01/04 01:17:18;;;;;;;37.90;18.70;;;;;;;-128.00;-1.00;-1.00;101064;1305;1003671;-30
2023/01/04 01:19:44;;;;;;;56.10;22.60;;;;;;;-128.00;-1.00;-1.00;101042;1305;1004857;-30
2023/01/04 01:22:10;;;;;;;58.50;24.70;;;;;;;-128.00;-1.00;-1.00;100728;1305;1002975;-30
2023/01/04 01:24:36;;;;;;;45.40;20.40;;;;;;;-128.00;-1.00;-1.00;101052;1305;1002425;-34
2023/01/04 01:27:02;;;;;;;41.70;18.90;;;;;;;-128.00;-1.00;-1.00;101091;1305;1004110;-31
2023/01/04 01:29:28;;;;;;;46.20;20.40;;;;;;;-128.00;-1.00;-1.00;101057;1305;1002700;-34
2023/01/04 01:31:53;;;;;;;45.10;19.60;;;;;;;-128.00;-1.00;-1.00;101095;1305;1003078;-30
2023/01/04 01:34:19;;;;;;;50.60;21.30;;;;;;;-128.00;-1.00;-1.00;101132;1305;1003700;-34
2023/01/04 01:36:45;;;;;;;39.90;20.10;;;;;;;-128.00;-1.00;-1.00;101215;1305;1003432;-34
2023/01/04 01:39:11;;;;;;;38.40;18.00;;;;;;;-128.00;-1.00;-1.00;101201;1305;1003245;-34
2023/01/04 01:41:37;;;;;;;35.60;18.10;;;;;;;-128.00;-1.00;-1.00;101181;1305;1003182;-30
2023/01/04 01:44:26;;;;;;;35.40;17.60;;;;;;;-128.00;-1.00;-1.00;100319;1305;1002855;-29
2023/01/04 01:46:52;;;;;;;41.00;17.60;;;;;;;-128.00;-1.00;-1.00;101110;1305;1004429;-30
2023/01/04 01:49:24;;;;;;;43.20;21.80;;;;;;;-128.00;-1.00;-1.00;101106;1305;1003469;-34
2023/01/04 01:51:50;;;;;;;48.70;20.40;;;;;;;-128.00;-1.00;-1.00;101113;1305;1002819;-29
2023/01/04 01:54:19;;;;;;;43.70;19.20;;;;;;;-128.00;-1.00;-1.00;100955;1305;1003188;-33
2023/01/04 01:56:45;;;;;;;48.60;21.80;;;;;;;-128.00;-1.00;-1.00;101055;1306;1003215;-30
2023/01/04 01:59:11;;;;;;;36.20;15.30;;;;;;;-128.00;-1.00;-1.00;100217;1306;2004031;-30
2023/01/04 02:01:36;;;;;;;47.00;20.20;;;;;;;-128.00;-1.00;-1.00;101186;1306;1003353;-31
2023/01/04 02:04:03;;;;;;;51.10;21.50;;;;;;;-128.00;-1.00;-1.00;101209;1306;1003869;-35
2023/01/04 02:06:34;;;;;;;31.30;14.80;;;;;;;-128.00;-1.00;-1.00;101093;1306;1004657;-34
2023/01/04 02:09:00;;;;;;;46.80;19.00;;;;;;;-128.00;-1.00;-1.00;101091;1305;1003518;-30
2023/01/04 02:11:26;;;;;;;43.20;18.90;;;;;;;-128.00;-1.00;-1.00;101089;1306;1002584;-35
2023/01/04 02:16:52;;;;;;;49.00;23.20;;;;;;;-128.00;-1.00;-1.00;101078;1306;1002762;-35
2023/01/04 02:19:41;;;;;;;56.70;22.50;;;;;;;-128.00;-1.00;-1.00;101027;1306;1003432;-31
2023/01/04 02:22:31;;;;;;;41.10;19.90;;;;;;;-128.00;-1.00;-1.00;100968;1306;1005523;-35
2023/01/04 02:25:20;;;;;;;68.40;26.30;;;;;;;-128.00;-1.00;-1.00;101188;1305;1003321;-35
2023/01/04 02:28:04;;;;;;;81.70;29.10;;;;;;;-128.00;-1.00;-1.00;101140;1306;1003488;-35
2023/01/04 02:31:01;;;;;;;49.80;23.00;;;;;;;-128.00;-1.00;-1.00;101204;1306;1003468;-35
2023/01/04 02:33:34;;;;;;;41.80;19.90;;;;;;;-128.00;-1.00;-1.00;100367;1306;1004034;-34
2023/01/04 02:36:13;;;;;;;31.70;14.50;;;;;;;-128.00;-1.00;-1.00;101205;1302;1002667;-29
2023/01/04 02:38:59;;;;;;;49.90;20.20;;;;;;;-128.00;-1.00;-1.00;100620;1305;1003205;-33
2023/01/04 02:41:41;;;;;;;42.60;20.00;;;;;;;-128.00;-1.00;-1.00;101119;1306;1002970;-28
2023/01/04 02:46:59;;;;;;;33.30;16.90;;;;;;;-128.00;-1.00;-1.00;101134;1306;1003463;-34
2023/01/04 02:52:03;;;;;;;47.20;21.70;;;;;;;-128.00;-1.00;-1.00;101097;1306;1003446;-33
2023/01/04 02:54:31;;;;;;;60.00;25.60;;;;;;;-128.00;-1.00;-1.00;101144;1306;1003047;-29
2023/01/04 02:57:08;;;;;;;38.50;16.40;;;;;;;-128.00;-1.00;-1.00;101059;1306;1003802;-33
2023/01/04 02:59:56;;;;;;;51.70;22.20;;;;;;;-128.00;-1.00;-1.00;101156;1299;1002923;-34
2023/01/04 03:08:30;;;;;;;44.30;17.30;;;;;;;-128.00;-1.00;-1.00;101157;1306;1002837;-37
2023/01/04 03:12:30;;;;;;;54.40;24.50;;;;;;;-128.00;-1.00;-1.00;101045;1305;1003614;-30
2023/01/04 03:13:51;;;;;;;40.00;18.90;;;;;;;-128.00;-1.00;-1.00;101180;1302;1002981;-30
2023/01/04 03:16:19;;;;;;;39.70;19.40;;;;;;;-128.00;-1.00;-1.00;101023;1306;1003456;-34
2023/01/04 03:18:47;;;;;;;49.50;23.20;;;;;;;-128.00;-1.00;-1.00;101098;1300;1003102;-34
2023/01/04 03:21:13;;;;;;;62.00;22.80;;;;;;;-128.00;-1.00;-1.00;100939;1305;1003609;-35
2023/01/04 03:37:03;;;;;;;47.10;18.60;;;;;;;-128.00;-1.00;-1.00;101123;1306;1004376;-30
2023/01/04 03:50:24;;;;;;;46.70;21.30;;;;;;;-128.00;-1.00;-1.00;101055;1303;1002954;-33
2023/01/04 03:52:50;;;;;;;37.30;16.20;;;;;;;-128.00;-1.00;-1.00;101110;1306;1003359;-31
2023/01/04 03:55:18;;;;;;;29.30;13.60;;;;;;;-128.00;-1.00;-1.00;101219;1306;1003372;-33
2023/01/04 03:57:43;;;;;;;30.40;14.80;;;;;;;-128.00;-1.00;-1.00;101035;1306;1003002;-34
2023/01/04 04:00:15;;;;;;;33.80;14.10;;;;;;;-128.00;-1.00;-1.00;101037;1306;1003426;-34
2023/01/04 04:02:41;;;;;;;35.30;14.90;;;;;;;-128.00;-1.00;-1.00;101084;1302;1002559;-30
2023/01/04 04:10:22;;;;;;;35.50;17.30;;;;;;;-128.00;-1.00;-1.00;100905;1306;1003124;-29
2023/01/04 04:12:48;;;;;;;41.40;17.50;;;;;;;-128.00;-1.00;-1.00;101127;1306;1005147;-36
2023/01/04 04:15:14;;;;;;;45.00;16.10;;;;;;;-128.00;-1.00;-1.00;100744;1306;1003450;-34
2023/01/04 04:17:40;;;;;;;38.60;16.30;;;;;;;-128.00;-1.00;-1.00;101124;1306;1003025;-31
2023/01/04 04:20:06;;;;;;;51.20;16.80;;;;;;;-128.00;-1.00;-1.00;101218;1306;1003642;-34
2023/01/04 04:22:33;;;;;;;47.90;21.20;;;;;;;-128.00;-1.00;-1.00;101072;1305;1002917;-30
2023/01/04 04:24:58;;;;;;;48.60;22.50;;;;;;;-128.00;-1.00;-1.00;101139;1305;1003152;-34
2023/01/04 04:27:24;;;;;;;37.70;14.50;;;;;;;-128.00;-1.00;-1.00;101178;1302;1003790;-30
2023/01/04 04:29:50;;;;;;;49.60;21.50;;;;;;;-128.00;-1.00;-1.00;101119;1305;1003771;-30
2023/01/04 04:32:15;;;;;;;42.30;19.50;;;;;;;-128.00;-1.00;-1.00;101004;1305;1004035;-33
2023/01/04 04:34:41;;;;;;;57.30;23.90;;;;;;;-128.00;-1.00;-1.00;101117;1305;1003324;-34
2023/01/04 04:37:07;;;;;;;44.50;21.80;;;;;;;-128.00;-1.00;-1.00;100970;1305;1003869;-30
2023/01/04 05:15:06;;;;;;;56.50;24.80;;;;;;;-102.93;19.20;20110.74;101658;1302;1544421;-33
2023/01/04 05:17:32;;;;;;;59.60;25.80;;;;;;;-128.00;-1.00;-1.00;98854;1300;1003231;-29
2023/01/04 05:19:58;;;;;;;54.60;23.20;;;;;;;-128.00;-1.00;-1.00;100711;1301;1003541;-33
2023/01/04 05:22:23;;;;;;;34.70;17.80;;;;;;;-128.00;-1.00;-1.00;101411;1301;1003648;-29
2023/01/04 05:24:49;;;;;;;37.80;18.00;;;;;;;-128.00;-1.00;-1.00;101451;1301;1003409;-35
2023/01/04 05:27:15;;;;;;;34.20;15.50;;;;;;;-128.00;-1.00;-1.00;101439;1301;1005452;-34
2023/01/04 05:32:10;;;;;;;50.80;20.10;;;;;;;-128.00;-1.00;-1.00;101404;1301;1003061;-33
2023/01/04 05:34:36;;;;;;;73.30;28.80;;;;;;;-128.00;-1.00;-1.00;101408;1301;1003361;-29
2023/01/04 05:37:01;;;;;;;61.10;23.60;;;;;;;-128.00;-1.00;-1.00;101505;1301;1003405;-29
2023/01/04 05:39:29;;;;;;;59.90;24.20;;;;;;;-128.00;-1.00;-1.00;101460;1301;1004175;-34
2023/01/04 05:44:24;;;;;;;70.20;25.60;;;;;;;-128.00;-1.00;-1.00;101487;1301;1003230;-30
2023/01/04 05:46:50;;;;;;;80.40;27.10;;;;;;;-128.00;-1.00;-1.00;101498;1301;1003691;-33
2023/01/04 05:49:16;;;;;;;72.00;28.10;;;;;;;-128.00;-1.00;-1.00;101388;1301;1003153;-34
2023/01/04 05:51:41;;;;;;;60.60;26.90;;;;;;;-128.00;-1.00;-1.00;101394;1301;1003329;-31
2023/01/04 05:54:07;;;;;;;65.90;24.10;;;;;;;-128.00;-1.00;-1.00;101407;1301;1003298;-29
2023/01/04 05:56:34;;;;;;;53.90;25.30;;;;;;;-128.00;-1.00;-1.00;101522;1301;1005164;-35
2023/01/04 05:59:00;;;;;;;76.80;23.50;;;;;;;-128.00;-1.00;-1.00;101474;1301;1002881;-31
2023/01/04 06:01:26;;;;;;;60.30;23.40;;;;;;;-128.00;-1.00;-1.00;100615;1301;1003161;-33
2023/01/04 06:03:52;;;;;;;61.40;26.60;;;;;;;-128.00;-1.00;-1.00;101219;1301;1002629;-31
2023/01/04 06:06:17;;;;;;;50.70;22.50;;;;;;;-128.00;-1.00;-1.00;101405;1301;1005011;-35
2023/01/04 06:08:43;;;;;;;61.00;26.50;;;;;;;-128.00;-1.00;-1.00;101331;1301;1005246;-34
2023/01/04 06:11:09;;;;;;;49.60;23.00;;;;;;;-128.00;-1.00;-1.00;101157;1301;1003710;-34
2023/01/04 06:13:35;;;;;;;68.00;27.20;;;;;;;-128.00;-1.00;-1.00;101439;1301;1004781;-30
2023/01/04 06:16:01;;;;;;;51.30;20.10;;;;;;;-128.00;-1.00;-1.00;101296;1302;1002651;-35
2023/01/04 06:18:27;;;;;;;69.90;27.70;;;;;;;-128.00;-1.00;-1.00;101462;1301;1003803;-35
2023/01/04 06:20:53;;;;;;;72.40;25.50;;;;;;;-128.00;-1.00;-1.00;101453;1302;1004463;-35
2023/01/04 06:23:18;;;;;;;53.50;21.90;;;;;;;-128.00;-1.00;-1.00;101423;1301;1003707;-35
2023/01/04 06:25:44;;;;;;;46.00;18.60;;;;;;;-128.00;-1.00;-1.00;101498;1301;1003492;-35
2023/01/04 06:28:10;;;;;;;55.80;24.50;;;;;;;-128.00;-1.00;-1.00;101506;1302;1003053;-34
2023/01/04 06:30:35;;;;;;;40.50;17.90;;;;;;;-128.00;-1.00;-1.00;101351;1302;1002992;-35
2023/01/04 06:33:01;;;;;;;46.70;23.20;;;;;;;-128.00;-1.00;-1.00;101391;1301;1002792;-35
2023/01/04 06:35:27;;;;;;;56.60;21.40;;;;;;;-128.00;-1.00;-1.00;101559;1302;1003839;-35
2023/01/04 06:37:53;;;;;;;49.00;20.60;;;;;;;-128.00;-1.00;-1.00;101425;1301;1002725;-35
2023/01/04 06:40:19;;;;;;;44.10;21.30;;;;;;;-128.00;-1.00;-1.00;101470;1301;1003394;-37
2023/01/04 06:42:44;;;;;;;71.30;21.50;;;;;;;-128.00;-1.00;-1.00;101396;1302;1003035;-38
2023/01/04 06:45:11;;;;;;;60.00;21.50;;;;;;;-128.00;-1.00;-1.00;101414;1302;1002808;-34
2023/01/04 06:47:40;;;;;;;51.70;19.10;;;;;;;-128.00;-1.00;-1.00;101468;1301;1003570;-29
2023/01/04 06:50:06;;;;;;;40.80;19.30;;;;;;;-128.00;-1.00;-1.00;101461;1301;1002809;-31
2023/01/04 06:52:32;;;;;;;44.30;20.20;;;;;;;-128.00;-1.00;-1.00;101285;1301;1003706;-35
2023/01/04 06:54:58;;;;;;;44.50;19.50;;;;;;;-128.00;-1.00;-1.00;101378;1301;1002973;-31
2023/01/04 06:57:26;;;;;;;47.40;19.30;;;;;;;-128.00;-1.00;-1.00;101354;1302;1002574;-35
2023/01/04 06:59:52;;;;;;;48.70;21.50;;;;;;;-128.00;-1.00;-1.00;101364;1301;1003292;-34
2023/01/04 07:02:18;;;;;;;45.10;22.70;;;;;;;-128.00;-1.00;-1.00;101351;1301;1003777;-30
2023/01/04 07:04:44;;;;;;;33.70;17.60;;;;;;;-128.00;-1.00;-1.00;101422;1301;1003220;-29
2023/01/04 07:07:09;;;;;;;47.60;20.50;;;;;;;-128.00;-1.00;-1.00;101390;1302;1003498;-29
2023/01/04 07:09:35;;;;;;;42.50;17.30;;;;;;;-128.00;-1.00;-1.00;101500;1302;1003347;-36
2023/01/04 07:12:01;;;;;;;51.30;20.90;;;;;;;-128.00;-1.00;-1.00;101493;1301;1003212;-37
2023/01/04 07:14:27;;;;;;;38.90;16.10;;;;;;;-128.00;-1.00;-1.00;101474;1302;1003942;-31
2023/01/04 07:16:53;;;;;;;42.70;20.20;;;;;;;-128.00;-1.00;-1.00;101380;1302;1004103;-31
2023/01/04 07:19:19;;;;;;;40.30;19.00;;;;;;;-128.00;-1.00;-1.00;101454;1301;1003558;-34
2023/01/04 07:21:44;;;;;;;56.60;21.60;;;;;;;-128.00;-1.00;-1.00;101435;1302;1004198;-35
2023/01/04 07:24:10;;;;;;;36.00;16.40;;;;;;;-128.00;-1.00;-1.00;101396;1302;1002814;-35
2023/01/04 07:26:36;;;;;;;42.90;18.40;;;;;;;-128.00;-1.00;-1.00;101417;1301;1002792;-34
2023/01/04 07:31:40;;;;;;;39.50;17.70;;;;;;;-128.00;-1.00;-1.00;101452;1302;1003710;-35
2023/01/04 07:34:07;;;;;;;41.10;17.40;;;;;;;-128.00;-1.00;-1.00;101397;1301;1003338;-33
2023/01/04 07:36:32;;;;;;;57.90;23.00;;;;;;;-128.00;-1.00;-1.00;101400;1302;1004082;-35
2023/01/04 07:38:59;;;;;;;37.40;19.30;;;;;;;-128.00;-1.00;-1.00;101460;1302;1005059;-32
2023/01/04 07:41:25;;;;;;;40.60;17.00;;;;;;;-128.00;-1.00;-1.00;101474;1301;1003565;-33
2023/01/04 07:43:51;;;;;;;54.10;19.30;;;;;;;-128.00;-1.00;-1.00;101441;1299;1003723;-33
2023/01/04 07:46:16;;;;;;;47.30;17.60;;;;;;;-128.00;-1.00;-1.00;101377;1302;1002969;-33
2023/01/04 07:48:42;;;;;;;49.50;20.50;;;;;;;-128.00;-1.00;-1.00;101430;1302;1004521;-34
2023/01/04 07:51:08;;;;;;;39.10;16.70;;;;;;;-128.00;-1.00;-1.00;101424;1302;1003440;-30
2023/01/04 07:53:34;;;;;;;36.90;17.50;;;;;;;-128.00;-1.00;-1.00;101416;1302;1003916;-30
2023/01/04 07:56:00;;;;;;;55.90;19.10;;;;;;;-128.00;-1.00;-1.00;101506;1302;1003870;-30
2023/01/04 07:58:30;;;;;;;32.80;16.00;;;;;;;-128.00;-1.00;-1.00;101379;1302;1003354;-38
2023/01/04 08:00:56;;;;;;;33.20;17.40;;;;;;;-128.00;-1.00;-1.00;101448;1302;1003200;-30
2023/01/04 08:03:22;;;;;;;42.40;18.50;;;;;;;-128.00;-1.00;-1.00;101356;1302;1002913;-34
2023/01/04 08:05:48;;;;;;;28.60;14.20;;;;;;;-128.00;-1.00;-1.00;101376;1302;1002717;-34
2023/01/04 08:08:14;;;;;;;30.00;14.50;;;;;;;-128.00;-1.00;-1.00;101479;1301;1003021;-30
2023/01/04 08:10:40;;;;;;;44.40;12.70;;;;;;;-128.00;-1.00;-1.00;101460;1302;1002620;-35
2023/01/04 08:13:05;;;;;;;29.40;14.30;;;;;;;-128.00;-1.00;-1.00;101431;1302;1004248;-33
2023/01/04 08:15:32;;;;;;;26.20;14.70;;;;;;;-128.00;-1.00;-1.00;101401;1301;1002998;-30
2023/01/04 08:17:57;;;;;;;29.30;14.20;;;;;;;-128.00;-1.00;-1.00;101393;1302;1003277;-34
2023/01/04 08:20:23;;;;;;;29.50;15.20;;;;;;;-128.00;-1.00;-1.00;101459;1301;1003206;-34
2023/01/04 08:22:49;;;;;;;29.40;15.20;;;;;;;-128.00;-1.00;-1.00;101464;1302;1003884;-34
2023/01/04 08:25:14;;;;;;;33.30;15.60;;;;;;;-128.00;-1.00;-1.00;101361;1302;1004150;-30
2023/01/04 08:27:40;;;;;;;39.60;15.10;;;;;;;-128.00;-1.00;-1.00;101359;1301;1003339;-34
2023/01/04 08:30:07;;;;;;;31.80;14.40;;;;;;;-128.00;-1.00;-1.00;101431;1302;1004750;-29
2023/01/04 08:32:33;;;;;;;36.50;16.60;;;;;;;-128.00;-1.00;-1.00;101393;1302;1003461;-34
2023/01/04 08:34:58;;;;;;;30.60;14.40;;;;;;;-128.00;-1.00;-1.00;101468;1301;1004195;-34
2023/01/04 08:37:24;;;;;;;30.00;12.60;;;;;;;-128.00;-1.00;-1.00;101475;1302;1002847;-30
2023/01/04 08:39:50;;;;;;;32.70;16.20;;;;;;;-128.00;-1.00;-1.00;101595;1302;1004837;-34
2023/01/04 08:42:16;;;;;;;28.80;14.60;;;;;;;-128.00;-1.00;-1.00;101441;1301;1004479;-30
2023/01/04 08:44:42;;;;;;;28.70;12.50;;;;;;;-128.00;-1.00;-1.00;101440;1302;1003522;-30
2023/01/04 08:47:08;;;;;;;25.10;12.70;;;;;;;-128.00;-1.00;-1.00;101422;1302;1003806;-33
2023/01/04 08:49:33;;;;;;;22.40;11.50;;;;;;;-128.00;-1.00;-1.00;101305;1302;1003284;-32
2023/01/04 08:51:59;;;;;;;25.70;11.30;;;;;;;-128.00;-1.00;-1.00;101344;1302;1003417;-35
2023/01/04 08:54:25;;;;;;;27.40;12.30;;;;;;;-128.00;-1.00;-1.00;101421;1301;1002817;-31
2023/01/04 08:56:52;;;;;;;23.90;11.60;;;;;;;-128.00;-1.00;-1.00;101394;1302;1003381;-35
2023/01/04 08:59:19;;;;;;;17.50;9.50;;;;;;;-128.00;-1.00;-1.00;101602;1302;1005248;-37
2023/01/04 09:01:45;;;;;;;27.60;12.10;;;;;;;-128.00;-1.00;-1.00;101414;1302;1004172;-35
2023/01/04 09:04:11;;;;;;;29.50;13.50;;;;;;;-128.00;-1.00;-1.00;101391;1302;1004418;-31
2023/01/04 09:06:37;;;;;;;18.20;10.50;;;;;;;-128.00;-1.00;-1.00;101413;1302;1002375;-34
2023/01/04 09:09:03;;;;;;;31.50;13.40;;;;;;;-128.00;-1.00;-1.00;101467;1302;1003348;-34
2023/01/04 09:11:29;;;;;;;34.20;12.90;;;;;;;-128.00;-1.00;-1.00;101117;1302;1003521;-30
2023/01/04 09:13:55;;;;;;;24.50;13.00;;;;;;;-128.00;-1.00;-1.00;101452;1302;1002727;-35
2023/01/04 09:16:21;;;;;;;24.40;11.90;;;;;;;-128.00;-1.00;-1.00;101395;1302;1004082;-35
2023/01/04 09:18:47;;;;;;;22.50;11.70;;;;;;;-128.00;-1.00;-1.00;101412;1302;1003663;-33
2023/01/04 09:21:14;;;;;;;22.00;10.80;;;;;;;-128.00;-1.00;-1.00;101391;1302;1003598;-35
2023/01/04 09:23:40;;;;;;;26.90;10.50;;;;;;;-128.00;-1.00;-1.00;101361;1302;1002769;-36
2023/01/04 09:26:22;;;;;;;26.90;12.10;;;;;;;-128.00;-1.00;-1.00;101361;1302;1003325;-30
2023/01/04 09:28:52;;;;;;;27.40;12.60;;;;;;;-128.00;-1.00;-1.00;101473;1302;1003172;-30
2023/01/04 09:31:22;;;;;;;21.90;11.60;;;;;;;-128.00;-1.00;-1.00;101413;1302;1003463;-34
2023/01/04 09:33:48;;;;;;;28.10;13.60;;;;;;;-128.00;-1.00;-1.00;101439;1302;1004618;-34
2023/01/04 09:36:15;;;;;;;18.20;9.60;;;;;;;-128.00;-1.00;-1.00;101380;1302;1004462;-30
2023/01/04 09:38:41;;;;;;;19.40;10.60;;;;;;;-128.00;-1.00;-1.00;101432;1302;1003153;-30
2023/01/04 09:41:14;;;;;;;19.60;12.70;;;;;;;-128.00;-1.00;-1.00;101514;1302;1003852;-30
2023/01/04 09:43:52;;;;;;;14.00;9.00;;;;;;;-128.00;-1.00;-1.00;101285;1301;1002630;-30
2023/01/04 09:46:32;;;;;;;28.10;10.90;;;;;;;-128.00;-1.00;-1.00;101402;1302;1002831;-34
2023/01/04 09:49:06;;;;;;;30.80;11.20;;;;;;;-128.00;-1.00;-1.00;101435;1302;1003240;-30
2023/01/04 09:51:35;;;;;;;18.90;9.90;;;;;;;-128.00;-1.00;-1.00;101399;1302;1004435;-31
2023/01/04 09:54:04;;;;;;;18.50;11.10;;;;;;;-128.00;-1.00;-1.00;101528;1302;1003102;-34
2023/01/04 09:56:32;;;;;;;17.90;11.00;;;;;;;-128.00;-1.00;-1.00;101584;1302;1002783;-35
2023/01/04 09:59:00;;;;;;;27.80;10.80;;;;;;;-128.00;-1.00;-1.00;101442;1302;1004156;-31
2023/01/04 10:01:45;;;;;;;21.10;11.20;;;;;;;-128.00;-1.00;-1.00;101589;1302;1003152;-32
2023/01/04 10:04:23;;;;;;;16.90;9.10;;;;;;;-128.00;-1.00;-1.00;101257;1301;1003781;-31
2023/01/04 10:06:49;;;;;;;16.00;9.40;;;;;;;-128.00;-1.00;-1.00;101405;1301;1004350;-35
2023/01/04 10:09:15;;;;;;;18.50;9.70;;;;;;;-128.00;-1.00;-1.00;101445;1301;1003971;-30
2023/01/04 10:11:57;;;;;;;16.60;10.70;;;;;;;-128.00;-1.00;-1.00;101424;1302;1002923;-29
2023/01/04 10:14:39;;;;;;;23.30;8.90;;;;;;;-128.00;-1.00;-1.00;101451;1301;1004112;-32
2023/01/04 10:17:21;;;;;;;14.30;7.80;;;;;;;-128.00;-1.00;-1.00;101471;1302;1003975;-38
2023/01/04 10:20:11;;;;;;;17.00;10.40;;;;;;;-128.00;-1.00;-1.00;101550;1302;1003743;-31
2023/01/04 10:22:46;;;;;;;19.10;11.70;;;;;;;-128.00;-1.00;-1.00;101409;1302;1004596;-31
2023/01/04 10:25:29;;;;;;;19.20;10.50;;;;;;;-128.00;-1.00;-1.00;101383;1278;1003554;-32
2023/01/04 10:28:14;;;;;;;18.30;9.90;;;;;;;-128.00;-1.00;-1.00;101136;1302;1003517;-31
2023/01/04 10:30:50;;;;;;;21.50;11.00;;;;;;;-128.00;-1.00;-1.00;101408;1302;1004764;-35
2023/01/04 10:33:34;;;;;;;18.80;9.50;;;;;;;-128.00;-1.00;-1.00;101546;1301;1003092;-35
2023/01/04 10:35:59;;;;;;;22.40;11.70;;;;;;;-128.00;-1.00;-1.00;101392;1302;1003236;-35
2023/01/04 10:38:29;;;;;;;28.10;12.20;;;;;;;-128.00;-1.00;-1.00;101478;1301;1003613;-35
2023/01/04 10:40:54;;;;;;;22.40;11.10;;;;;;;-128.00;-1.00;-1.00;101479;1302;1003698;-31
2023/01/04 10:43:38;;;;;;;34.80;11.00;;;;;;;-128.00;-1.00;-1.00;101478;1302;1003291;-31
2023/01/04 10:46:08;;;;;;;20.80;12.90;;;;;;;-128.00;-1.00;-1.00;101329;1302;1003406;-30
2023/01/04 10:48:43;;;;;;;29.70;13.40;;;;;;;-128.00;-1.00;-1.00;101436;1302;1003565;-30
2023/01/04 10:51:09;;;;;;;18.20;10.30;;;;;;;-128.00;-1.00;-1.00;101507;1301;1003752;-33
2023/01/04 10:53:58;;;;;;;20.90;11.80;;;;;;;-128.00;-1.00;-1.00;101456;1302;1003871;-30
2023/01/04 10:56:29;;;;;;;30.70;13.10;;;;;;;-128.00;-1.00;-1.00;101366;1302;1002384;-37
2023/01/04 10:59:28;;;;;;;22.80;11.90;;;;;;;-128.00;-1.00;-1.00;101304;1300;1002899;-34
2023/01/04 11:02:26;;;;;;;18.80;10.40;;;;;;;-128.00;-1.00;-1.00;101422;1301;1003715;-30
2023/01/04 11:44:40;;;;;;;15.20;6.70;;;;;;;4.30;100.00;99841.92;104229;1297;557846;-33
2023/01/04 11:47:17;;;;;;;13.60;7.50;;;;;;;4.32;100.00;99832.39;104061;1304;411487;-33
2023/01/04 11:49:43;;;;;;;12.60;7.30;;;;;;;4.32;100.00;99824.92;104470;1304;22572;-30
2023/01/04 11:52:31;;;;;;;12.80;6.90;;;;;;;4.36;100.00;99818.16;104511;1304;24310;-30
2023/01/04 11:55:16;;;;;;;20.50;8.10;;;;;;;4.28;100.00;99806.66;104368;1303;22636;-31
2023/01/04 11:57:42;;;;;;;13.10;7.60;;;;;;;4.34;100.00;99804.17;104551;1301;24420;-33
2023/01/04 12:00:12;;;;;;;13.40;7.60;;;;;;;4.35;100.00;99795.77;104503;1294;22660;-33
2023/01/04 12:02:38;;;;;;;10.40;7.30;;;;;;;4.31;100.00;99782.96;104539;1284;24261;-29
2023/01/04 12:05:18;;;;;;;13.00;6.90;;;;;;;4.35;100.00;99773.77;104523;1295;22800;-28
2023/01/04 12:07:44;;;;;;;16.00;6.60;;;;;;;4.31;100.00;99764.73;104602;1294;22558;-29
2023/01/04 12:10:25;;;;;;;10.10;4.70;;;;;;;4.32;100.00;99758.05;104595;1301;24451;-33
2023/01/04 12:12:52;;;;;;;11.80;6.70;;;;;;;4.31;100.00;99748.93;104580;1304;23030;-32
2023/01/04 12:15:28;;;;;;;5.50;4.50;;;;;;;4.34;100.00;99740.63;104461;1304;23039;-29
2023/01/04 12:18:10;;;;;;;12.60;7.00;;;;;;;4.44;100.00;99732.98;104489;1304;22782;-29
2023/01/04 12:20:36;;;;;;;13.20;5.70;;;;;;;4.44;100.00;99729.96;104633;1302;24797;-33
2023/01/04 12:23:02;;;;;;;24.50;13.10;;;;;;;4.48;100.00;99716.62;104562;1304;22670;-34
2023/01/04 12:25:35;;;;;;;41.40;16.70;;;;;;;4.53;100.00;99709.79;104560;1293;22562;-33
2023/01/04 12:28:01;;;;;;;31.80;14.30;;;;;;;4.57;100.00;99701.22;104555;1282;25496;-30
2023/01/04 12:30:46;;;;;;;35.10;14.80;;;;;;;4.67;100.00;99692.27;104468;1303;22795;-35
2023/01/04 12:33:38;;;;;;;19.00;8.70;;;;;;;4.72;100.00;99691.95;104475;1297;22636;-30
2023/01/04 12:36:09;;;;;;;16.70;7.60;;;;;;;-101.44;19.20;19936.28;101597;1294;1002954;-34
2023/01/04 12:38:56;;;;;;;8.60;5.00;;;;;;;-128.00;-1.00;-1.00;101002;1304;1004750;-30
2023/01/04 12:41:23;;;;;;;45.10;20.00;;;;;;;-128.00;-1.00;-1.00;101024;1304;1004514;-35
2023/01/04 12:43:51;;;;;;;9.10;4.20;;;;;;;-128.00;-1.00;-1.00;100972;1304;1003586;-30
2023/01/04 12:49:41;;;;;;;9.70;3.70;;;;;;;-128.00;-1.00;-1.00;100951;1305;1005580;-31
2023/01/04 12:52:33;;;;;;;4.60;3.50;;;;;;;-128.00;-1.00;-1.00;100894;1304;1004418;-34
2023/01/04 12:55:01;;;;;;;7.40;4.30;;;;;;;-128.00;-1.00;-1.00;101021;1304;1004593;-30
2023/01/04 12:57:34;;;;;;;7.90;3.60;;;;;;;-128.00;-1.00;-1.00;101083;1304;1004734;-30
2023/01/04 13:00:07;;;;;;;8.20;4.60;;;;;;;-128.00;-1.00;-1.00;101001;1297;1004630;-35
2023/01/04 13:02:42;;;;;;;8.10;3.40;;;;;;;-128.00;-1.00;-1.00;100913;1304;1004513;-30
2023/01/04 13:05:30;;;;;;;9.00;3.80;;;;;;;-128.00;-1.00;-1.00;101063;1297;1003728;-34
2023/01/04 13:07:57;;;;;;;6.80;3.30;;;;;;;-128.00;-1.00;-1.00;100916;1304;1005050;-34
2023/01/04 13:10:36;;;;;;;7.20;3.40;;;;;;;-128.00;-1.00;-1.00;100914;1305;1004544;-34
2023/01/04 13:13:22;;;;;;;7.50;3.80;;;;;;;-128.00;-1.00;-1.00;101055;1304;1003684;-35
2023/01/04 13:16:03;;;;;;;11.30;3.40;;;;;;;-128.00;-1.00;-1.00;101025;1304;1004806;-35
2023/01/04 13:18:46;;;;;;;6.60;3.80;;;;;;;-128.00;-1.00;-1.00;100870;1302;1003826;-34
2023/01/04 13:21:28;;;;;;;3.10;2.20;;;;;;;-128.00;-1.00;-1.00;100990;1304;1005083;-31
2023/01/04 13:23:55;;;;;;;7.00;4.60;;;;;;;-128.00;-1.00;-1.00;101047;1304;1004902;-31
2023/01/04 13:26:35;;;;;;;7.70;4.20;;;;;;;-128.00;-1.00;-1.00;100995;1304;1004581;-31